Enter the Airport ICAO Code

Search by Airport or City

Current Weather

FIMP | Sir Seewoosagur Ramgoolam International Airport

Plaine Magnien, Mauritius

Last Update 58 Minutes Ago

Partly Cloudy Sky

Temperature of 32 ºC

Moderate Winds from NorthEast

Temperature

32 ºC

Dew Point Temperature

24 ºC

Relative Humidity

62.88 %

Wind Direction

NorthEast (050º, Without Significant Variations)

Wind Velocity

19 km/h (10 kt)

Gusts

None

Visibility

Greater than 10 Kilometers

Sea Level Pressure

1009 hPa (Hectopascals)

Layers of Clouds

30% to 60% of Sky Covered from 518 mts (1700 ft) Above Ground Level.

30% to 60% of Sky Covered from 7620 mts (25000 ft) Above Ground Level.

METAR FIMP 160700Z 05010KT 9999 SCT017 SCT250 32/24 Q1009

Weather Forecast

FIMP | Sir Seewoosagur Ramgoolam International Airport

Plaine Magnien, Mauritius

Forecast valid for the next 28 Hours

From now on it is expected:

Partly Cloudy Sky

Moderate Winds from North

In 1 hour it is expected the begining of 6 hours with intermittent periods of:

Rain

In 8 to 10 hours it is expected the begining of:

Light to Moderate Winds from NorthWest

Maximum Temperature

No Data

Minimum Temperature

No Data

TAF FIMP 160510Z 1606/1712 01010KT 9999 SCT018 TEMPO 1609/1615 5000 SHRA FEW006 FEW012CB BKN015 BECMG 1616/1618 33005KT